createdAt,value
2018-12-06T00:01:48.929Z,56.60
2018-12-06T00:04:16.581Z,56.60
2018-12-06T00:06:44.077Z,56.60
2018-12-06T00:09:11.576Z,56.60
2018-12-06T00:11:39.073Z,56.60
2018-12-06T00:14:06.566Z,56.50
2018-12-06T00:16:34.058Z,56.70
2018-12-06T00:19:08.741Z,56.70
2018-12-06T00:21:36.234Z,56.60
2018-12-06T00:24:03.729Z,56.60
2018-12-06T00:26:31.221Z,56.60
2018-12-06T00:28:58.715Z,56.60
2018-12-06T00:31:26.206Z,56.70
2018-12-06T00:33:53.705Z,56.60
2018-12-06T00:36:21.195Z,56.60
2018-12-06T00:38:48.691Z,56.60
2018-12-06T00:41:16.184Z,56.60
2018-12-06T00:43:43.682Z,57.20
2018-12-06T00:46:11.181Z,56.60
2018-12-06T00:48:38.673Z,56.70
2018-12-06T00:51:06.392Z,56.60
2018-12-06T00:53:33.890Z,56.70
2018-12-06T00:56:01.381Z,56.70
2018-12-06T00:58:28.873Z,56.70
2018-12-06T01:00:56.366Z,56.70
2018-12-06T01:03:23.858Z,56.70
2018-12-06T01:05:51.353Z,56.70
2018-12-06T01:08:18.849Z,56.70
2018-12-06T01:10:46.348Z,56.70
2018-12-06T01:13:13.842Z,56.70
2018-12-06T01:15:41.338Z,56.70
2018-12-06T01:18:08.832Z,56.70
2018-12-06T01:20:36.326Z,56.70
2018-12-06T01:23:03.825Z,56.70
2018-12-06T01:25:31.323Z,56.70
2018-12-06T01:27:58.831Z,56.70
2018-12-06T01:30:26.336Z,56.70
2018-12-06T01:32:53.838Z,56.70
2018-12-06T01:35:21.336Z,56.70
2018-12-06T01:37:48.829Z,56.70
2018-12-06T01:40:16.318Z,56.60
2018-12-06T01:42:43.819Z,56.70
2018-12-06T01:45:11.312Z,56.70
2018-12-06T01:47:38.805Z,56.70
2018-12-06T01:50:07.062Z,56.70
2018-12-06T01:52:34.557Z,56.70
2018-12-06T01:55:02.045Z,56.70
2018-12-06T01:57:29.538Z,56.70
2018-12-06T01:59:57.029Z,57.20
2018-12-06T02:02:24.522Z,56.70
2018-12-06T02:04:52.467Z,56.70
2018-12-06T02:07:19.962Z,56.70
2018-12-06T02:09:47.462Z,56.70
2018-12-06T02:12:14.958Z,56.70
2018-12-06T02:14:42.446Z,56.70
2018-12-06T02:17:09.937Z,56.70
2018-12-06T02:19:37.430Z,56.70
2018-12-06T02:22:04.921Z,56.70
2018-12-06T02:24:32.417Z,56.70
2018-12-06T02:26:59.915Z,56.70
2018-12-06T02:29:29.397Z,56.70
2018-12-06T02:31:56.895Z,56.70
2018-12-06T02:34:24.389Z,56.70
2018-12-06T02:36:51.885Z,56.70
2018-12-06T02:39:19.386Z,56.70
2018-12-06T02:41:47.115Z,56.70
2018-12-06T02:44:14.609Z,56.70
2018-12-06T02:46:42.103Z,56.70
2018-12-06T02:49:09.600Z,56.70
2018-12-06T02:51:37.093Z,56.70
2018-12-06T02:54:04.582Z,56.70
2018-12-06T02:56:32.081Z,56.70
2018-12-06T02:58:59.581Z,56.80
2018-12-06T03:01:27.077Z,56.70
2018-12-06T03:03:54.571Z,56.70
2018-12-06T03:06:22.070Z,56.70
2018-12-06T03:08:49.561Z,56.70
2018-12-06T03:11:17.054Z,56.70
2018-12-06T03:13:44.549Z,56.80
2018-12-06T03:16:12.045Z,56.70
2018-12-06T03:18:39.528Z,56.70
2018-12-06T03:21:07.022Z,56.70
2018-12-06T03:23:34.523Z,56.70
2018-12-06T03:26:02.013Z,56.70
2018-12-06T03:28:29.509Z,56.70
2018-12-06T03:30:57.003Z,56.70
2018-12-06T03:33:24.506Z,56.70
2018-12-06T03:35:51.998Z,56.70
2018-12-06T03:38:19.504Z,56.80
2018-12-06T03:40:47.001Z,56.70
2018-12-06T03:43:14.498Z,56.70
2018-12-06T03:45:41.991Z,56.70
2018-12-06T03:48:09.494Z,56.70
2018-12-06T03:50:36.996Z,56.70
2018-12-06T03:53:04.514Z,56.70
2018-12-06T03:55:32.012Z,56.70
2018-12-06T03:57:59.505Z,56.80
2018-12-06T04:00:26.997Z,56.70
2018-12-06T04:02:54.489Z,56.70
2018-12-06T04:05:21.982Z,56.70
2018-12-06T04:07:49.478Z,56.70
2018-12-06T04:10:16.965Z,56.70
2018-12-06T04:12:44.466Z,56.70
2018-12-06T04:15:11.960Z,56.70
2018-12-06T04:17:39.479Z,56.60
2018-12-06T04:20:06.973Z,56.70
2018-12-06T04:22:34.476Z,56.70
2018-12-06T04:25:01.974Z,56.80
2018-12-06T04:27:29.467Z,56.70
2018-12-06T04:29:56.963Z,56.70
2018-12-06T04:32:24.550Z,56.70
2018-12-06T04:34:52.070Z,56.70
2018-12-06T04:37:19.561Z,56.70
2018-12-06T04:39:47.050Z,56.70
2018-12-06T04:42:14.545Z,56.70
2018-12-06T04:44:42.041Z,56.70
2018-12-06T04:47:09.541Z,56.70
2018-12-06T04:49:37.046Z,56.70
2018-12-06T04:52:04.537Z,56.70
2018-12-06T04:54:32.032Z,56.70
2018-12-06T04:56:59.526Z,56.70
2018-12-06T04:59:27.031Z,56.80
2018-12-06T05:01:54.523Z,56.70
2018-12-06T05:04:22.013Z,56.70
2018-12-06T05:06:49.510Z,56.70
2018-12-06T05:09:17.011Z,56.70
2018-12-06T05:11:44.501Z,56.70
2018-12-06T05:14:11.990Z,56.70
2018-12-06T05:16:39.490Z,56.70
2018-12-06T05:19:06.982Z,56.70
2018-12-06T05:21:34.481Z,56.70
2018-12-06T05:24:01.975Z,56.70
2018-12-06T05:26:29.470Z,57.00
2018-12-06T05:28:56.962Z,56.80
2018-12-06T05:31:24.454Z,56.70
2018-12-06T05:33:51.942Z,56.80
2018-12-06T05:36:19.438Z,56.70
2018-12-06T05:38:46.934Z,56.70
2018-12-06T05:41:14.430Z,56.70
2018-12-06T05:43:41.924Z,56.70
2018-12-06T05:46:09.533Z,57.20
2018-12-06T05:48:37.044Z,56.80
2018-12-06T05:51:04.541Z,56.80
2018-12-06T05:53:32.026Z,56.80
2018-12-06T05:55:59.529Z,56.80
2018-12-06T05:58:27.024Z,56.80
2018-12-06T06:00:54.522Z,56.80
2018-12-06T06:03:22.020Z,56.80
2018-12-06T06:05:49.514Z,56.80
2018-12-06T06:08:17.005Z,56.80
2018-12-06T06:10:44.497Z,56.70
2018-12-06T06:13:11.985Z,56.80
2018-12-06T06:15:39.480Z,56.80
2018-12-06T06:18:06.973Z,56.80
2018-12-06T06:20:34.470Z,56.80
2018-12-06T06:23:01.969Z,56.80
2018-12-06T06:25:29.462Z,56.80
2018-12-06T06:27:56.950Z,56.80
2018-12-06T06:30:24.442Z,56.80
2018-12-06T06:32:51.934Z,56.80
2018-12-06T06:35:19.509Z,56.80
2018-12-06T06:37:47.037Z,56.80
2018-12-06T06:40:14.533Z,56.70
2018-12-06T06:42:42.042Z,56.80
2018-12-06T06:45:09.541Z,56.80
2018-12-06T06:47:37.036Z,56.80
2018-12-06T06:50:04.537Z,56.80
2018-12-06T06:52:32.030Z,56.70
2018-12-06T06:54:59.637Z,56.80
2018-12-06T06:57:27.137Z,56.80
2018-12-06T06:59:54.635Z,56.80
2018-12-06T07:02:22.136Z,56.80
2018-12-06T07:04:49.629Z,56.80
2018-12-06T07:07:17.122Z,56.70
2018-12-06T07:09:44.614Z,56.80
2018-12-06T07:12:12.110Z,56.80
2018-12-06T07:14:39.809Z,56.80
2018-12-06T07:17:07.579Z,56.70
2018-12-06T07:19:35.077Z,56.70
2018-12-06T07:22:02.567Z,56.70
2018-12-06T07:24:30.070Z,56.70
2018-12-06T07:26:57.558Z,56.80
2018-12-06T07:29:25.053Z,56.80
2018-12-06T07:31:52.597Z,56.70
2018-12-06T07:34:20.085Z,56.70
2018-12-06T07:36:47.584Z,56.70
2018-12-06T07:39:15.078Z,56.70
2018-12-06T07:41:42.570Z,56.70
2018-12-06T07:44:10.066Z,56.70
2018-12-06T07:46:37.557Z,56.80
2018-12-06T07:49:05.050Z,56.70
2018-12-06T07:51:32.550Z,56.70
2018-12-06T07:54:00.043Z,56.70
2018-12-06T07:56:27.543Z,56.70
2018-12-06T07:58:55.038Z,56.80
2018-12-06T08:01:22.544Z,56.80
2018-12-06T08:03:50.516Z,56.80
2018-12-06T08:06:18.005Z,56.50
2018-12-06T08:08:45.493Z,56.10
2018-12-06T08:11:12.987Z,55.40
2018-12-06T08:13:40.521Z,56.00
2018-12-06T08:16:08.095Z,55.30
2018-12-06T08:18:35.589Z,54.20
2018-12-06T08:21:03.081Z,53.40
2018-12-06T08:23:30.588Z,52.70
2018-12-06T08:25:58.092Z,52.20
2018-12-06T08:28:25.599Z,51.50
2018-12-06T08:30:53.102Z,51.10
2018-12-06T08:33:20.598Z,50.90
2018-12-06T08:35:48.094Z,50.60
2018-12-06T08:38:15.589Z,50.30
2018-12-06T08:40:43.086Z,50.00
2018-12-06T08:43:10.705Z,49.90
2018-12-06T08:45:38.197Z,49.80
2018-12-06T08:48:05.689Z,49.70
2018-12-06T08:50:33.186Z,49.70
2018-12-06T08:53:00.681Z,49.60
2018-12-06T08:55:28.173Z,49.40
2018-12-06T08:57:55.664Z,49.60
2018-12-06T09:00:23.162Z,50.10
2018-12-06T09:02:50.656Z,49.90
2018-12-06T09:05:18.156Z,49.80
2018-12-06T09:07:45.645Z,49.90
2018-12-06T09:10:13.150Z,48.70
2018-12-06T09:12:40.656Z,48.80
2018-12-06T09:15:08.158Z,49.20
2018-12-06T09:17:35.655Z,48.50
2018-12-06T09:20:04.510Z,48.40
2018-12-06T09:22:32.010Z,48.10
2018-12-06T09:24:59.507Z,48.60
2018-12-06T09:27:27.011Z,48.10
2018-12-06T09:29:54.516Z,48.10
2018-12-06T09:32:22.018Z,48.00
2018-12-06T09:34:49.518Z,47.90
2018-12-06T09:37:17.022Z,47.80
2018-12-06T09:39:48.630Z,47.70
2018-12-06T09:42:16.129Z,47.80
2018-12-06T09:44:43.634Z,47.80
2018-12-06T09:47:11.130Z,47.80
2018-12-06T09:49:38.630Z,47.90
2018-12-06T09:52:06.140Z,47.90
2018-12-06T09:54:33.642Z,47.50
2018-12-06T09:57:01.149Z,47.70
2018-12-06T09:59:28.649Z,47.60
2018-12-06T10:01:56.146Z,47.50
2018-12-06T10:04:23.641Z,47.60
2018-12-06T10:06:51.142Z,47.80
2018-12-06T10:09:18.650Z,47.90
2018-12-06T10:11:46.153Z,47.80
2018-12-06T10:14:13.649Z,48.00
2018-12-06T10:16:41.148Z,47.80
2018-12-06T10:19:08.647Z,47.60
2018-12-06T10:21:36.146Z,47.90
2018-12-06T10:24:03.645Z,47.80
2018-12-06T10:26:31.412Z,48.40
2018-12-06T10:28:58.935Z,47.90
2018-12-06T10:31:26.809Z,47.90
2018-12-06T10:33:54.323Z,48.00
2018-12-06T10:36:21.825Z,48.00
2018-12-06T10:38:49.330Z,47.90
2018-12-06T10:41:16.830Z,48.00
2018-12-06T10:43:44.334Z,47.90
2018-12-06T10:46:12.161Z,48.10
2018-12-06T10:48:39.661Z,47.90
2018-12-06T10:51:19.010Z,48.10
2018-12-06T10:53:46.510Z,48.10
2018-12-06T10:56:14.013Z,48.10
2018-12-06T10:58:41.513Z,48.20
2018-12-06T11:01:09.014Z,48.20
2018-12-06T11:03:42.112Z,48.40
2018-12-06T11:06:09.615Z,48.30
2018-12-06T11:08:37.127Z,48.60
2018-12-06T11:11:04.635Z,48.50
2018-12-06T11:13:32.145Z,48.70
2018-12-06T11:15:59.649Z,48.80
2018-12-06T11:18:27.157Z,48.80
2018-12-06T11:20:54.658Z,48.90
2018-12-06T11:23:22.161Z,48.90
2018-12-06T11:25:49.661Z,49.10
2018-12-06T11:28:17.162Z,49.20
2018-12-06T11:30:44.662Z,49.20
2018-12-06T11:33:12.167Z,49.40
2018-12-06T11:35:40.858Z,49.50
2018-12-06T11:38:08.681Z,49.60
2018-12-06T11:40:36.180Z,49.60
2018-12-06T11:43:03.687Z,49.80
2018-12-06T11:45:31.202Z,49.70
2018-12-06T11:47:58.706Z,49.90
2018-12-06T11:50:26.211Z,50.00
2018-12-06T11:52:53.709Z,50.20
2018-12-06T11:55:21.270Z,50.40
2018-12-06T11:57:49.125Z,50.40
2018-12-06T12:00:16.626Z,50.60
2018-12-06T12:02:44.126Z,50.60
2018-12-06T12:05:11.629Z,50.80
2018-12-06T12:07:39.140Z,50.80
2018-12-06T12:10:06.727Z,51.00
2018-12-06T12:12:34.221Z,51.00
2018-12-06T12:15:01.725Z,51.00
2018-12-06T12:17:29.337Z,51.20
2018-12-06T12:19:56.841Z,51.20
2018-12-06T12:22:24.347Z,51.40
2018-12-06T12:24:51.847Z,51.50
2018-12-06T12:27:19.342Z,51.50
2018-12-06T12:29:46.838Z,51.50
2018-12-06T12:32:14.342Z,51.50
2018-12-06T12:34:41.842Z,51.70
2018-12-06T12:37:09.346Z,51.70
2018-12-06T12:39:36.847Z,51.80
2018-12-06T12:42:04.353Z,51.90
2018-12-06T12:44:31.861Z,51.90
2018-12-06T12:46:59.366Z,52.00
2018-12-06T12:49:26.869Z,52.00
2018-12-06T12:51:54.381Z,52.10
2018-12-06T12:54:21.985Z,52.30
2018-12-06T12:56:49.487Z,52.40
2018-12-06T12:59:17.092Z,52.60
2018-12-06T13:01:44.910Z,52.50
2018-12-06T13:04:12.421Z,52.60
2018-12-06T13:06:39.922Z,52.70
2018-12-06T13:09:07.434Z,53.40
2018-12-06T13:11:34.936Z,52.80
2018-12-06T13:14:02.479Z,53.00
2018-12-06T13:16:30.059Z,53.00
2018-12-06T13:18:57.566Z,53.00
2018-12-06T13:21:25.065Z,53.10
2018-12-06T13:23:52.569Z,53.20
2018-12-06T13:26:20.070Z,53.30
2018-12-06T13:28:47.569Z,52.90
2018-12-06T13:31:15.070Z,53.00
2018-12-06T13:33:42.577Z,53.20
2018-12-06T13:36:10.077Z,53.20
2018-12-06T13:38:37.577Z,53.40
2018-12-06T13:41:05.085Z,53.40
2018-12-06T13:43:32.590Z,53.50
2018-12-06T13:46:00.163Z,53.60
2018-12-06T13:48:27.809Z,53.60
2018-12-06T13:50:55.310Z,53.70
2018-12-06T13:53:22.818Z,53.70
2018-12-06T13:55:50.322Z,53.80
2018-12-06T13:58:17.943Z,53.90
2018-12-06T14:00:45.656Z,54.00
2018-12-06T14:03:13.468Z,54.00
2018-12-06T14:05:40.974Z,54.00
2018-12-06T14:08:08.473Z,54.10
2018-12-06T14:10:35.979Z,54.10
2018-12-06T14:13:03.490Z,54.20
2018-12-06T14:15:30.990Z,54.20
2018-12-06T14:17:58.485Z,54.40
2018-12-06T14:20:25.982Z,55.20
2018-12-06T14:22:53.554Z,55.30
2018-12-06T14:25:21.093Z,55.30
2018-12-06T14:27:48.598Z,54.00
2018-12-06T14:30:16.098Z,52.10
2018-12-06T14:32:44.740Z,54.00
2018-12-06T14:35:12.614Z,55.20
2018-12-06T14:37:40.116Z,55.80
2018-12-06T14:40:07.619Z,55.70
2018-12-06T14:42:35.127Z,55.60
2018-12-06T14:45:02.630Z,55.40
2018-12-06T14:47:30.126Z,55.20
2018-12-06T14:49:57.626Z,55.20
2018-12-06T14:52:25.130Z,55.10
2018-12-06T14:54:52.634Z,55.00
2018-12-06T14:57:20.147Z,55.00
2018-12-06T14:59:47.645Z,55.10
2018-12-06T15:02:15.259Z,55.70
2018-12-06T15:04:42.754Z,55.10
2018-12-06T15:07:10.258Z,55.10
2018-12-06T15:09:37.764Z,55.10
2018-12-06T15:12:05.274Z,55.10
2018-12-06T15:14:32.783Z,55.10
2018-12-06T15:17:00.282Z,55.20
2018-12-06T15:19:27.786Z,55.10
2018-12-06T15:21:55.281Z,55.00
2018-12-06T15:24:22.781Z,55.10
2018-12-06T15:26:50.284Z,55.20
2018-12-06T15:29:18.098Z,55.20
2018-12-06T15:31:45.597Z,55.20
2018-12-06T15:34:13.102Z,55.20
2018-12-06T15:36:40.597Z,55.20
2018-12-06T15:39:08.097Z,55.30
2018-12-06T15:41:35.596Z,55.20
2018-12-06T15:44:03.098Z,55.20
2018-12-06T15:46:30.602Z,52.80
2018-12-06T15:48:58.106Z,54.80
2018-12-06T15:51:25.605Z,55.60
2018-12-06T15:53:53.106Z,56.30
2018-12-06T15:56:20.605Z,56.30
2018-12-06T15:58:48.111Z,56.00
2018-12-06T16:01:15.639Z,55.60
2018-12-06T16:03:43.234Z,53.90
2018-12-06T16:06:10.747Z,52.50
2018-12-06T16:08:38.258Z,54.60
2018-12-06T16:11:05.878Z,55.50
2018-12-06T16:13:33.390Z,56.30
2018-12-06T16:16:00.885Z,56.20
2018-12-06T16:18:28.391Z,55.30
2018-12-06T16:20:55.899Z,55.80
2018-12-06T16:23:23.412Z,55.80
2018-12-06T16:25:50.915Z,55.80
2018-12-06T16:28:18.530Z,55.60
2018-12-06T16:30:46.030Z,56.10
2018-12-06T16:33:13.531Z,55.20
2018-12-06T16:35:41.033Z,55.40
2018-12-06T16:38:08.529Z,55.30
2018-12-06T16:40:36.034Z,55.30
2018-12-06T16:43:03.548Z,55.30
2018-12-06T16:45:31.046Z,55.20
2018-12-06T16:47:58.771Z,55.30
2018-12-06T16:50:26.266Z,55.30
2018-12-06T16:52:53.773Z,55.30
2018-12-06T16:55:21.276Z,55.20
2018-12-06T16:57:48.779Z,55.20
2018-12-06T17:00:16.278Z,55.20
2018-12-06T17:02:43.781Z,55.30
2018-12-06T17:05:11.281Z,55.30
2018-12-06T17:07:38.786Z,55.30
2018-12-06T17:10:06.281Z,55.30
2018-12-06T17:12:33.778Z,55.40
2018-12-06T17:15:01.277Z,55.30
2018-12-06T17:17:28.781Z,55.40
2018-12-06T17:19:56.289Z,55.30
2018-12-06T17:22:23.785Z,55.30
2018-12-06T17:24:51.282Z,55.30
2018-12-06T17:27:18.778Z,55.30
2018-12-06T17:29:46.461Z,55.30
2018-12-06T17:32:13.960Z,55.30
2018-12-06T17:34:41.458Z,55.40
2018-12-06T17:37:08.961Z,55.40
2018-12-06T17:39:36.458Z,55.40
2018-12-06T17:42:03.966Z,55.50
2018-12-06T17:44:31.465Z,55.50
2018-12-06T17:47:00.443Z,55.50
2018-12-06T17:49:27.942Z,55.50
2018-12-06T17:51:55.931Z,56.00
2018-12-06T17:54:23.430Z,55.50
2018-12-06T17:56:50.930Z,55.40
2018-12-06T17:59:18.425Z,55.40
2018-12-06T18:01:45.921Z,55.40
2018-12-06T18:04:13.422Z,55.40
2018-12-06T18:06:40.922Z,55.40
2018-12-06T18:09:08.427Z,55.40
2018-12-06T18:11:35.924Z,55.40
2018-12-06T18:14:03.421Z,55.50
2018-12-06T18:16:30.919Z,55.40
2018-12-06T18:18:58.417Z,55.50
2018-12-06T18:21:25.922Z,55.50
2018-12-06T18:23:53.422Z,55.50
2018-12-06T18:26:20.930Z,55.40
2018-12-06T18:28:48.430Z,55.40
2018-12-06T18:31:15.925Z,55.50
2018-12-06T18:33:43.421Z,55.50
2018-12-06T18:36:10.918Z,55.70
2018-12-06T18:38:38.539Z,55.40
2018-12-06T18:41:06.038Z,55.50
2018-12-06T18:43:33.533Z,55.40
2018-12-06T18:46:01.033Z,55.30
2018-12-06T18:48:28.530Z,55.30
2018-12-06T18:50:56.107Z,55.40
2018-12-06T18:53:23.606Z,55.40
2018-12-06T18:55:51.102Z,55.40
2018-12-06T18:58:18.606Z,55.40
2018-12-06T19:00:46.107Z,55.50
2018-12-06T19:03:13.610Z,55.40
2018-12-06T19:05:41.115Z,55.40
2018-12-06T19:08:08.992Z,55.40
2018-12-06T19:10:36.958Z,55.40
2018-12-06T19:13:04.466Z,55.30
2018-12-06T19:15:31.966Z,55.40
2018-12-06T19:17:59.466Z,55.30
2018-12-06T19:20:27.085Z,55.30
2018-12-06T19:22:54.582Z,55.30
2018-12-06T19:25:22.089Z,55.30
2018-12-06T19:27:49.587Z,55.40
2018-12-06T19:30:17.080Z,55.40
2018-12-06T19:32:44.578Z,55.50
2018-12-06T19:35:12.108Z,55.40
2018-12-06T19:37:40.985Z,55.40
2018-12-06T19:40:08.494Z,55.30
2018-12-06T19:42:38.917Z,55.40
2018-12-06T19:45:06.086Z,55.30
2018-12-06T19:47:33.591Z,55.40
2018-12-06T19:50:01.103Z,55.40
2018-12-06T19:52:28.607Z,55.30
2018-12-06T19:54:56.110Z,55.40
2018-12-06T19:57:23.608Z,55.30
2018-12-06T19:59:51.103Z,55.30
2018-12-06T20:02:18.599Z,55.30
2018-12-06T20:04:46.522Z,55.30
2018-12-06T20:07:14.022Z,55.30
2018-12-06T20:09:41.526Z,55.30
2018-12-06T20:12:09.025Z,55.30
2018-12-06T20:14:36.518Z,55.40
2018-12-06T20:17:04.013Z,55.40
2018-12-06T20:19:31.517Z,55.30
2018-12-06T20:21:59.015Z,55.30
2018-12-06T20:24:26.510Z,55.90
2018-12-06T20:26:54.005Z,55.30
2018-12-06T20:29:21.502Z,55.30
2018-12-06T20:31:49.009Z,55.40
2018-12-06T20:34:16.509Z,55.30
2018-12-06T20:36:44.010Z,55.30
2018-12-06T20:39:11.510Z,55.30
2018-12-06T20:41:39.005Z,55.30
2018-12-06T20:44:06.505Z,55.30
2018-12-06T20:46:34.010Z,55.30
2018-12-06T20:49:01.514Z,55.30
2018-12-06T20:51:29.009Z,55.40
2018-12-06T20:53:56.506Z,55.90
2018-12-06T20:56:24.309Z,55.40
2018-12-06T20:58:51.805Z,55.40
2018-12-06T21:01:19.302Z,55.40
2018-12-06T21:03:46.802Z,55.40
2018-12-06T21:06:14.311Z,55.40
2018-12-06T21:08:41.813Z,55.40
2018-12-06T21:11:09.310Z,55.30
2018-12-06T21:13:36.806Z,55.30
2018-12-06T21:16:04.304Z,55.30
2018-12-06T21:18:31.802Z,55.90
2018-12-06T21:20:59.297Z,55.40
2018-12-06T21:23:26.796Z,55.40
2018-12-06T21:25:54.297Z,55.40
2018-12-06T21:28:21.797Z,55.40
2018-12-06T21:30:49.296Z,55.40
2018-12-06T21:33:16.805Z,55.40
2018-12-06T21:35:44.302Z,55.40
2018-12-06T21:38:11.805Z,55.40
2018-12-06T21:40:39.311Z,55.40
2018-12-06T21:43:06.813Z,55.40
2018-12-06T21:45:34.319Z,55.40
2018-12-06T21:48:01.814Z,55.40
2018-12-06T21:50:29.310Z,56.00
2018-12-06T21:52:56.806Z,55.40
2018-12-06T21:55:24.306Z,55.40
2018-12-06T21:57:51.802Z,55.40
2018-12-06T22:00:19.298Z,55.40
2018-12-06T22:02:46.802Z,55.40
2018-12-06T22:05:14.299Z,55.40
2018-12-06T22:07:41.798Z,55.40
2018-12-06T22:10:09.293Z,55.40
2018-12-06T22:12:36.789Z,55.40
2018-12-06T22:15:05.086Z,55.50
2018-12-06T22:17:32.582Z,55.60
2018-12-06T22:20:00.073Z,55.50
2018-12-06T22:22:27.562Z,55.50
2018-12-06T22:24:55.062Z,55.50
2018-12-06T22:27:22.568Z,55.50
2018-12-06T22:29:50.061Z,55.40
2018-12-06T22:32:17.550Z,55.40
2018-12-06T22:34:45.046Z,55.40
2018-12-06T22:37:12.541Z,55.50
2018-12-06T22:39:40.034Z,55.50
2018-12-06T22:42:07.525Z,55.50
2018-12-06T22:44:35.018Z,55.50
2018-12-06T22:47:02.533Z,55.50
2018-12-06T22:49:30.121Z,55.60
2018-12-06T22:51:57.614Z,55.50
2018-12-06T22:54:25.111Z,55.50
2018-12-06T22:56:52.605Z,55.50
2018-12-06T22:59:20.105Z,55.50
2018-12-06T23:01:49.895Z,55.60
2018-12-06T23:04:17.761Z,55.50
2018-12-06T23:06:45.338Z,55.60
2018-12-06T23:09:12.834Z,55.50
2018-12-06T23:11:40.329Z,56.10
2018-12-06T23:14:07.834Z,55.50
2018-12-06T23:16:35.331Z,55.50
2018-12-06T23:19:02.827Z,55.50
2018-12-06T23:21:30.325Z,55.50
2018-12-06T23:23:58.218Z,55.60
2018-12-06T23:26:25.710Z,55.50
2018-12-06T23:28:53.201Z,55.50
2018-12-06T23:31:20.694Z,55.50
2018-12-06T23:33:48.197Z,55.50
2018-12-06T23:36:15.695Z,55.50
2018-12-06T23:38:43.193Z,55.50
2018-12-06T23:41:10.686Z,55.50
2018-12-06T23:43:38.482Z,55.50
2018-12-06T23:46:05.981Z,55.50
2018-12-06T23:48:33.475Z,55.40
2018-12-06T23:54:08.999Z,55.50
2018-12-06T23:56:36.486Z,55.40
2018-12-06T23:59:03.977Z,55.40
